Airfield :
LOGIN :

Register | Disclaimer

   EN    FR    IT 

 










Legend :    VFR   Marginal VFR   IFR   Intensive IFR   Very Intensive IFR
Visi :
Ceiling :
>= 8 km
>= 3000ft
5 to 8 km
1000 to 3000 ft
1500m to 5 km
500 to 1000 ft
800 to 1500m
200 to 500 ft
< 800m
< 200 ft
Symbols :   Thunderstorms  Fog  Heavy snow  Heavy precipitations  Wind > 20 kt
SIGMETs :     Misc.  Thunderstorms  Icing  Turbulence  Mountain Waves  Volcanic Ashes







- Airport Elevation : 256 ft
- IATA code : KUN


EYKA - Kaunas

CURRENT METAR :
  • 201150Z 36009KT 330V040 CAVOK 19/04 Q1026

EXPIRED METARs :
  • 201120Z 34008KT 300V030 CAVOK 18/03 Q1026
  • 201050Z 02008KT 340V120 CAVOK 18/03 Q1026
  • 201020Z 35011KT 310V040 CAVOK 18/03 Q1026
  • 200950Z 36010KT CAVOK 17/03 Q1026
  • 200920Z 36010KT 330V030 CAVOK 17/02 Q1026

TAF TAF EYKA
Valid from the 20 at 12:00 until the 21 at 12:00 UTC


201102Z 2012/2112 02012KT CAVOK
BECMG 2016/2017 VRB02KT
BECMG 2108/2109 08015KT
No reported NOTAMs for that airfield.



MET'MAP, your aeronautical weather chart ! - Copyright ORBIFLY December 2007 - Disclaimer

ORBIFLY MET'MAP TEAM :

Programming & Development : Alexandra Zaïnal
Concept & Development : Baudouin d'Aumeries
Co-Development & Prog : Marc-Olivier Méhu
Technical & hardware support : Manuel Goepfert

Contact : metmap@orbifly.com




SOURCES & CREDITS :

   NOAA